East Charlemont, Massachusetts
Current Conditions -  °F | °C
As of 8:52 PM on Sunday 25 Jan 2015 (Local Time) from KAQW Reporting Station
Clear Clear  
Wind Chill:   Ceiling: Unl
Heat Index: 15°   Visibility: 10mi
Dew Point:   Wind: 5mph
Humidity: 59%   Direction: 250°WSW
Pressure: 29.98"   Gusts: NA
Location:  42.6026°N, 72.7442°W
Report Text: KAQW 260152Z AUTO 25004KT 10SM CLR M09/M16 A2998 RMK AO2 PRESRR SLP162 T10941161
Loading
Personal Weather Stations






























Interactive Weather Map New forecast layout! Learn more

10-Day Weather Forecast

Advertisements
Track Severe Weather on mobile